sensor_id;sensor_type;location;lat;lon;timestamp;P1;durP1;ratioP1;P2;durP2;ratioP2
41755;SDS011;27435;48.480;9.258;2022-08-21T00:00:05;6.65;;;2.38;;
41755;SDS011;27435;48.480;9.258;2022-08-21T00:02:34;7.53;;;1.85;;
41755;SDS011;27435;48.480;9.258;2022-08-21T00:05:00;5.10;;;2.95;;
41755;SDS011;27435;48.480;9.258;2022-08-21T00:07:25;4.00;;;2.30;;
41755;SDS011;27435;48.480;9.258;2022-08-21T00:09:52;5.63;;;2.40;;
41755;SDS011;27435;48.480;9.258;2022-08-21T00:12:18;7.35;;;2.72;;
41755;SDS011;27435;48.480;9.258;2022-08-21T00:14:44;7.05;;;2.35;;
41755;SDS011;27435;48.480;9.258;2022-08-21T00:17:10;4.15;;;2.20;;
41755;SDS011;27435;48.480;9.258;2022-08-21T00:19:36;5.70;;;2.40;;
41755;SDS011;27435;48.480;9.258;2022-08-21T00:22:02;5.87;;;3.13;;
41755;SDS011;27435;48.480;9.258;2022-08-21T00:24:27;10.53;;;2.50;;
41755;SDS011;27435;48.480;9.258;2022-08-21T00:26:53;5.25;;;2.30;;
41755;SDS011;27435;48.480;9.258;2022-08-21T00:29:19;5.70;;;2.78;;
41755;SDS011;27435;48.480;9.258;2022-08-21T00:31:45;7.53;;;2.65;;
41755;SDS011;27435;48.480;9.258;2022-08-21T00:34:11;7.68;;;2.20;;
41755;SDS011;27435;48.480;9.258;2022-08-21T00:36:38;5.78;;;2.30;;
41755;SDS011;27435;48.480;9.258;2022-08-21T00:39:05;4.43;;;2.53;;
41755;SDS011;27435;48.480;9.258;2022-08-21T00:41:32;6.73;;;2.60;;
41755;SDS011;27435;48.480;9.258;2022-08-21T00:43:58;5.68;;;2.42;;
41755;SDS011;27435;48.480;9.258;2022-08-21T00:46:24;8.77;;;2.90;;
41755;SDS011;27435;48.480;9.258;2022-08-21T00:48:50;5.47;;;3.13;;
41755;SDS011;27435;48.480;9.258;2022-08-21T00:51:20;6.90;;;2.70;;
41755;SDS011;27435;48.480;9.258;2022-08-21T00:53:54;7.88;;;2.35;;
41755;SDS011;27435;48.480;9.258;2022-08-21T00:56:22;12.07;;;2.30;;
41755;SDS011;27435;48.480;9.258;2022-08-21T00:58:49;7.00;;;2.57;;
41755;SDS011;27435;48.480;9.258;2022-08-21T01:01:16;6.20;;;2.45;;
41755;SDS011;27435;48.480;9.258;2022-08-21T01:03:42;6.20;;;2.50;;
41755;SDS011;27435;48.480;9.258;2022-08-21T01:06:08;5.50;;;2.30;;
41755;SDS011;27435;48.480;9.258;2022-08-21T01:08:34;8.15;;;2.88;;
41755;SDS011;27435;48.480;9.258;2022-08-21T01:11:01;4.00;;;2.33;;
41755;SDS011;27435;48.480;9.258;2022-08-21T01:13:29;7.07;;;2.73;;
41755;SDS011;27435;48.480;9.258;2022-08-21T01:15:58;11.37;;;2.83;;
41755;SDS011;27435;48.480;9.258;2022-08-21T01:18:27;5.10;;;2.80;;
41755;SDS011;27435;48.480;9.258;2022-08-21T01:21:03;4.90;;;2.83;;
41755;SDS011;27435;48.480;9.258;2022-08-21T01:23:33;6.63;;;2.70;;
41755;SDS011;27435;48.480;9.258;2022-08-21T01:26:00;5.57;;;2.57;;
41755;SDS011;27435;48.480;9.258;2022-08-21T01:28:27;6.07;;;2.83;;
41755;SDS011;27435;48.480;9.258;2022-08-21T01:30:55;4.67;;;2.30;;
41755;SDS011;27435;48.480;9.258;2022-08-21T01:33:22;3.60;;;2.20;;
41755;SDS011;27435;48.480;9.258;2022-08-21T01:35:49;4.83;;;2.17;;
41755;SDS011;27435;48.480;9.258;2022-08-21T01:38:15;8.17;;;2.83;;
41755;SDS011;27435;48.480;9.258;2022-08-21T01:40:42;5.30;;;2.30;;
41755;SDS011;27435;48.480;9.258;2022-08-21T01:43:08;5.50;;;3.00;;
41755;SDS011;27435;48.480;9.258;2022-08-21T01:45:33;6.13;;;2.87;;
41755;SDS011;27435;48.480;9.258;2022-08-21T01:47:59;6.17;;;2.67;;
41755;SDS011;27435;48.480;9.258;2022-08-21T01:50:25;7.67;;;2.63;;
41755;SDS011;27435;48.480;9.258;2022-08-21T01:52:50;5.47;;;2.93;;
41755;SDS011;27435;48.480;9.258;2022-08-21T01:55:17;4.13;;;2.40;;
41755;SDS011;27435;48.480;9.258;2022-08-21T01:57:44;6.40;;;2.83;;
41755;SDS011;27435;48.480;9.258;2022-08-21T02:00:12;13.27;;;3.17;;
41755;SDS011;27435;48.480;9.258;2022-08-21T02:02:40;5.83;;;2.60;;
41755;SDS011;27435;48.480;9.258;2022-08-21T02:05:06;7.47;;;3.00;;
41755;SDS011;27435;48.480;9.258;2022-08-21T02:07:41;6.87;;;2.73;;
41755;SDS011;27435;48.480;9.258;2022-08-21T02:10:11;4.73;;;2.87;;
41755;SDS011;27435;48.480;9.258;2022-08-21T02:12:39;7.77;;;2.90;;
41755;SDS011;27435;48.480;9.258;2022-08-21T02:15:05;9.33;;;2.70;;
41755;SDS011;27435;48.480;9.258;2022-08-21T02:17:42;7.90;;;2.37;;
41755;SDS011;27435;48.480;9.258;2022-08-21T02:20:20;5.63;;;2.17;;
41755;SDS011;27435;48.480;9.258;2022-08-21T02:22:51;6.25;;;2.25;;
41755;SDS011;27435;48.480;9.258;2022-08-21T02:25:17;5.57;;;2.30;;
41755;SDS011;27435;48.480;9.258;2022-08-21T02:27:44;3.87;;;2.40;;
41755;SDS011;27435;48.480;9.258;2022-08-21T02:30:17;5.57;;;2.30;;
41755;SDS011;27435;48.480;9.258;2022-08-21T02:32:44;4.83;;;2.43;;
41755;SDS011;27435;48.480;9.258;2022-08-21T02:35:11;8.30;;;3.33;;
41755;SDS011;27435;48.480;9.258;2022-08-21T02:37:44;5.65;;;2.83;;
41755;SDS011;27435;48.480;9.258;2022-08-21T02:40:16;6.13;;;2.65;;
41755;SDS011;27435;48.480;9.258;2022-08-21T02:42:43;9.23;;;2.80;;
41755;SDS011;27435;48.480;9.258;2022-08-21T02:45:10;7.37;;;2.60;;
41755;SDS011;27435;48.480;9.258;2022-08-21T02:47:36;7.47;;;2.77;;
41755;SDS011;27435;48.480;9.258;2022-08-21T02:50:02;4.97;;;2.90;;
41755;SDS011;27435;48.480;9.258;2022-08-21T02:52:29;9.43;;;2.77;;
41755;SDS011;27435;48.480;9.258;2022-08-21T02:54:54;7.07;;;2.97;;
41755;SDS011;27435;48.480;9.258;2022-08-21T02:57:20;4.40;;;2.90;;
41755;SDS011;27435;48.480;9.258;2022-08-21T02:59:46;9.10;;;2.90;;
41755;SDS011;27435;48.480;9.258;2022-08-21T03:02:12;7.13;;;2.83;;
41755;SDS011;27435;48.480;9.258;2022-08-21T03:04:37;6.83;;;3.33;;
41755;SDS011;27435;48.480;9.258;2022-08-21T03:07:03;7.63;;;2.93;;
41755;SDS011;27435;48.480;9.258;2022-08-21T03:09:29;6.43;;;2.90;;
41755;SDS011;27435;48.480;9.258;2022-08-21T03:11:55;5.83;;;2.73;;
41755;SDS011;27435;48.480;9.258;2022-08-21T03:14:20;7.27;;;3.10;;
41755;SDS011;27435;48.480;9.258;2022-08-21T03:16:46;6.67;;;3.27;;
41755;SDS011;27435;48.480;9.258;2022-08-21T03:19:11;5.93;;;2.40;;
41755;SDS011;27435;48.480;9.258;2022-08-21T03:21:38;4.30;;;3.20;;
41755;SDS011;27435;48.480;9.258;2022-08-21T03:24:03;8.00;;;3.77;;
41755;SDS011;27435;48.480;9.258;2022-08-21T03:26:30;7.17;;;2.97;;
41755;SDS011;27435;48.480;9.258;2022-08-21T03:28:56;6.70;;;3.17;;
41755;SDS011;27435;48.480;9.258;2022-08-21T03:31:22;5.93;;;3.00;;
41755;SDS011;27435;48.480;9.258;2022-08-21T03:33:48;7.13;;;3.50;;
41755;SDS011;27435;48.480;9.258;2022-08-21T03:36:14;12.00;;;3.50;;
41755;SDS011;27435;48.480;9.258;2022-08-21T03:38:40;8.73;;;3.43;;
41755;SDS011;27435;48.480;9.258;2022-08-21T03:41:07;6.03;;;3.30;;
41755;SDS011;27435;48.480;9.258;2022-08-21T03:43:33;9.17;;;4.73;;
41755;SDS011;27435;48.480;9.258;2022-08-21T03:46:00;6.83;;;3.47;;
41755;SDS011;27435;48.480;9.258;2022-08-21T03:48:27;7.30;;;3.10;;
41755;SDS011;27435;48.480;9.258;2022-08-21T03:50:53;8.77;;;3.10;;
41755;SDS011;27435;48.480;9.258;2022-08-21T03:53:18;10.50;;;3.60;;
41755;SDS011;27435;48.480;9.258;2022-08-21T03:55:45;12.33;;;3.37;;
41755;SDS011;27435;48.480;9.258;2022-08-21T03:58:12;5.73;;;3.67;;
41755;SDS011;27435;48.480;9.258;2022-08-21T04:00:39;7.37;;;3.17;;
41755;SDS011;27435;48.480;9.258;2022-08-21T04:03:05;10.80;;;4.20;;
41755;SDS011;27435;48.480;9.258;2022-08-21T04:05:31;9.13;;;3.57;;
41755;SDS011;27435;48.480;9.258;2022-08-21T04:07:58;7.90;;;3.80;;
41755;SDS011;27435;48.480;9.258;2022-08-21T04:10:26;7.37;;;3.50;;
41755;SDS011;27435;48.480;9.258;2022-08-21T04:12:53;9.77;;;3.50;;
41755;SDS011;27435;48.480;9.258;2022-08-21T04:15:21;10.20;;;3.20;;
41755;SDS011;27435;48.480;9.258;2022-08-21T04:17:47;8.43;;;3.47;;
41755;SDS011;27435;48.480;9.258;2022-08-21T04:20:13;12.13;;;3.80;;
41755;SDS011;27435;48.480;9.258;2022-08-21T04:22:40;7.10;;;3.50;;
41755;SDS011;27435;48.480;9.258;2022-08-21T04:25:05;8.13;;;4.03;;
41755;SDS011;27435;48.480;9.258;2022-08-21T04:27:32;6.53;;;3.67;;
41755;SDS011;27435;48.480;9.258;2022-08-21T04:29:58;8.30;;;3.27;;
41755;SDS011;27435;48.480;9.258;2022-08-21T04:32:25;10.17;;;3.23;;
41755;SDS011;27435;48.480;9.258;2022-08-21T04:34:56;6.43;;;3.40;;
41755;SDS011;27435;48.480;9.258;2022-08-21T04:37:29;7.43;;;4.03;;
41755;SDS011;27435;48.480;9.258;2022-08-21T04:39:55;6.80;;;3.60;;
41755;SDS011;27435;48.480;9.258;2022-08-21T04:42:24;7.57;;;3.90;;
41755;SDS011;27435;48.480;9.258;2022-08-21T04:44:51;6.83;;;3.97;;
41755;SDS011;27435;48.480;9.258;2022-08-21T04:47:17;13.23;;;3.67;;
41755;SDS011;27435;48.480;9.258;2022-08-21T04:49:43;8.07;;;3.93;;
41755;SDS011;27435;48.480;9.258;2022-08-21T04:52:10;9.67;;;4.00;;
41755;SDS011;27435;48.480;9.258;2022-08-21T04:54:38;11.93;;;5.13;;
41755;SDS011;27435;48.480;9.258;2022-08-21T04:57:06;8.80;;;3.83;;
41755;SDS011;27435;48.480;9.258;2022-08-21T04:59:38;5.67;;;3.50;;
41755;SDS011;27435;48.480;9.258;2022-08-21T05:02:07;9.10;;;4.33;;
41755;SDS011;27435;48.480;9.258;2022-08-21T05:04:34;7.93;;;3.90;;
41755;SDS011;27435;48.480;9.258;2022-08-21T05:07:05;7.43;;;3.60;;
41755;SDS011;27435;48.480;9.258;2022-08-21T05:09:35;6.70;;;3.20;;
41755;SDS011;27435;48.480;9.258;2022-08-21T05:12:03;9.30;;;4.07;;
41755;SDS011;27435;48.480;9.258;2022-08-21T05:14:29;8.63;;;3.40;;
41755;SDS011;27435;48.480;9.258;2022-08-21T05:16:55;9.07;;;3.90;;
41755;SDS011;27435;48.480;9.258;2022-08-21T05:19:21;5.27;;;3.17;;
41755;SDS011;27435;48.480;9.258;2022-08-21T05:21:46;6.60;;;3.20;;
41755;SDS011;27435;48.480;9.258;2022-08-21T05:24:13;8.47;;;3.67;;
41755;SDS011;27435;48.480;9.258;2022-08-21T05:26:39;11.00;;;4.20;;
41755;SDS011;27435;48.480;9.258;2022-08-21T05:29:05;7.03;;;3.37;;
41755;SDS011;27435;48.480;9.258;2022-08-21T05:31:32;12.17;;;5.17;;
41755;SDS011;27435;48.480;9.258;2022-08-21T05:33:58;9.10;;;4.00;;
41755;SDS011;27435;48.480;9.258;2022-08-21T05:36:24;11.37;;;3.80;;
41755;SDS011;27435;48.480;9.258;2022-08-21T05:38:50;6.63;;;3.30;;
41755;SDS011;27435;48.480;9.258;2022-08-21T05:41:15;11.13;;;3.60;;
41755;SDS011;27435;48.480;9.258;2022-08-21T05:43:41;13.00;;;4.03;;
41755;SDS011;27435;48.480;9.258;2022-08-21T05:46:07;7.77;;;4.23;;
41755;SDS011;27435;48.480;9.258;2022-08-21T05:48:33;11.67;;;4.00;;
41755;SDS011;27435;48.480;9.258;2022-08-21T05:51:07;8.23;;;3.50;;
41755;SDS011;27435;48.480;9.258;2022-08-21T05:53:35;7.47;;;3.85;;
41755;SDS011;27435;48.480;9.258;2022-08-21T05:56:02;7.17;;;3.57;;
41755;SDS011;27435;48.480;9.258;2022-08-21T05:58:29;7.20;;;3.83;;
41755;SDS011;27435;48.480;9.258;2022-08-21T06:00:56;9.50;;;4.28;;
41755;SDS011;27435;48.480;9.258;2022-08-21T06:03:24;7.63;;;3.35;;
41755;SDS011;27435;48.480;9.258;2022-08-21T06:05:53;8.75;;;4.00;;
41755;SDS011;27435;48.480;9.258;2022-08-21T06:08:20;9.43;;;4.05;;
41755;SDS011;27435;48.480;9.258;2022-08-21T06:10:47;7.20;;;3.40;;
41755;SDS011;27435;48.480;9.258;2022-08-21T06:13:15;9.38;;;3.78;;
41755;SDS011;27435;48.480;9.258;2022-08-21T06:15:42;5.55;;;3.22;;
41755;SDS011;27435;48.480;9.258;2022-08-21T06:18:08;7.63;;;2.97;;
41755;SDS011;27435;48.480;9.258;2022-08-21T06:20:34;9.45;;;3.67;;
41755;SDS011;27435;48.480;9.258;2022-08-21T06:22:59;5.97;;;3.13;;
41755;SDS011;27435;48.480;9.258;2022-08-21T06:25:26;6.65;;;2.80;;
41755;SDS011;27435;48.480;9.258;2022-08-21T06:27:52;5.53;;;2.20;;
41755;SDS011;27435;48.480;9.258;2022-08-21T06:30:17;6.95;;;2.47;;
41755;SDS011;27435;48.480;9.258;2022-08-21T06:32:43;11.07;;;2.78;;
41755;SDS011;27435;48.480;9.258;2022-08-21T06:35:09;6.47;;;2.20;;
41755;SDS011;27435;48.480;9.258;2022-08-21T06:37:35;5.38;;;2.15;;
41755;SDS011;27435;48.480;9.258;2022-08-21T06:40:02;5.75;;;2.03;;
41755;SDS011;27435;48.480;9.258;2022-08-21T06:42:29;7.25;;;2.08;;
41755;SDS011;27435;48.480;9.258;2022-08-21T06:44:56;5.22;;;1.70;;
41755;SDS011;27435;48.480;9.258;2022-08-21T06:47:22;4.20;;;2.15;;
41755;SDS011;27435;48.480;9.258;2022-08-21T06:49:47;5.47;;;1.42;;
41755;SDS011;27435;48.480;9.258;2022-08-21T06:52:13;4.88;;;1.95;;
41755;SDS011;27435;48.480;9.258;2022-08-21T06:54:40;6.30;;;1.70;;
41755;SDS011;27435;48.480;9.258;2022-08-21T06:57:05;3.40;;;1.55;;
41755;SDS011;27435;48.480;9.258;2022-08-21T06:59:31;5.60;;;1.75;;
41755;SDS011;27435;48.480;9.258;2022-08-21T07:01:58;3.55;;;1.80;;
41755;SDS011;27435;48.480;9.258;2022-08-21T07:04:24;5.80;;;1.90;;
41755;SDS011;27435;48.480;9.258;2022-08-21T07:06:50;4.13;;;1.77;;
41755;SDS011;27435;48.480;9.258;2022-08-21T07:09:15;5.93;;;1.98;;
41755;SDS011;27435;48.480;9.258;2022-08-21T07:11:41;8.15;;;1.95;;
41755;SDS011;27435;48.480;9.258;2022-08-21T07:14:08;8.50;;;1.60;;
41755;SDS011;27435;48.480;9.258;2022-08-21T07:16:34;3.80;;;1.50;;
41755;SDS011;27435;48.480;9.258;2022-08-21T07:19:00;4.18;;;1.85;;
41755;SDS011;27435;48.480;9.258;2022-08-21T07:21:26;4.47;;;1.77;;
41755;SDS011;27435;48.480;9.258;2022-08-21T07:23:52;4.93;;;1.77;;
41755;SDS011;27435;48.480;9.258;2022-08-21T07:26:19;4.47;;;2.00;;
41755;SDS011;27435;48.480;9.258;2022-08-21T07:28:47;6.15;;;2.30;;
41755;SDS011;27435;48.480;9.258;2022-08-21T07:31:15;5.20;;;1.85;;
41755;SDS011;27435;48.480;9.258;2022-08-21T07:33:42;5.30;;;1.58;;
41755;SDS011;27435;48.480;9.258;2022-08-21T07:36:08;5.05;;;1.88;;
41755;SDS011;27435;48.480;9.258;2022-08-21T07:38:34;7.97;;;1.73;;
41755;SDS011;27435;48.480;9.258;2022-08-21T07:41:00;5.43;;;1.80;;
41755;SDS011;27435;48.480;9.258;2022-08-21T07:43:27;6.00;;;1.83;;
41755;SDS011;27435;48.480;9.258;2022-08-21T07:45:54;6.60;;;1.80;;
41755;SDS011;27435;48.480;9.258;2022-08-21T07:48:20;4.00;;;1.80;;
41755;SDS011;27435;48.480;9.258;2022-08-21T07:50:47;6.53;;;2.08;;
41755;SDS011;27435;48.480;9.258;2022-08-21T07:53:13;5.07;;;1.85;;
41755;SDS011;27435;48.480;9.258;2022-08-21T07:55:39;14.48;;;3.65;;
41755;SDS011;27435;48.480;9.258;2022-08-21T07:58:05;5.90;;;2.22;;
41755;SDS011;27435;48.480;9.258;2022-08-21T08:00:31;3.95;;;1.60;;
41755;SDS011;27435;48.480;9.258;2022-08-21T08:02:57;7.53;;;2.30;;
41755;SDS011;27435;48.480;9.258;2022-08-21T08:05:24;9.50;;;2.30;;
41755;SDS011;27435;48.480;9.258;2022-08-21T08:07:52;7.30;;;2.17;;
41755;SDS011;27435;48.480;9.258;2022-08-21T08:10:18;7.68;;;2.05;;
41755;SDS011;27435;48.480;9.258;2022-08-21T08:12:44;5.47;;;1.92;;
41755;SDS011;27435;48.480;9.258;2022-08-21T08:15:20;5.70;;;2.00;;
41755;SDS011;27435;48.480;9.258;2022-08-21T08:17:49;8.02;;;1.98;;
41755;SDS011;27435;48.480;9.258;2022-08-21T08:20:15;7.75;;;2.13;;
41755;SDS011;27435;48.480;9.258;2022-08-21T08:22:43;9.57;;;1.90;;
41755;SDS011;27435;48.480;9.258;2022-08-21T08:25:11;6.07;;;1.73;;
41755;SDS011;27435;48.480;9.258;2022-08-21T08:27:38;7.28;;;2.38;;
41755;SDS011;27435;48.480;9.258;2022-08-21T08:30:05;11.23;;;2.15;;
41755;SDS011;27435;48.480;9.258;2022-08-21T08:32:32;7.82;;;2.00;;
41755;SDS011;27435;48.480;9.258;2022-08-21T08:34:58;9.30;;;2.40;;
41755;SDS011;27435;48.480;9.258;2022-08-21T08:37:24;6.88;;;1.67;;
41755;SDS011;27435;48.480;9.258;2022-08-21T08:39:50;4.25;;;1.77;;
41755;SDS011;27435;48.480;9.258;2022-08-21T08:42:24;7.03;;;2.15;;
41755;SDS011;27435;48.480;9.258;2022-08-21T08:45:04;5.85;;;2.40;;
41755;SDS011;27435;48.480;9.258;2022-08-21T08:47:31;7.10;;;2.10;;
41755;SDS011;27435;48.480;9.258;2022-08-21T08:50:08;5.88;;;1.92;;
41755;SDS011;27435;48.480;9.258;2022-08-21T08:52:52;7.00;;;1.98;;
41755;SDS011;27435;48.480;9.258;2022-08-21T08:57:51;5.50;;;2.20;;
41755;SDS011;27435;48.480;9.258;2022-08-21T09:00:19;9.38;;;2.20;;
41755;SDS011;27435;48.480;9.258;2022-08-21T09:02:49;6.72;;;2.63;;
41755;SDS011;27435;48.480;9.258;2022-08-21T09:05:21;4.28;;;1.70;;
41755;SDS011;27435;48.480;9.258;2022-08-21T09:07:59;7.90;;;2.40;;
41755;SDS011;27435;48.480;9.258;2022-08-21T09:16:13;4.55;;;2.50;;
41755;SDS011;27435;48.480;9.258;2022-08-21T09:21:46;11.30;;;2.47;;
41755;SDS011;27435;48.480;9.258;2022-08-21T09:24:45;6.47;;;2.20;;
41755;SDS011;27435;48.480;9.258;2022-08-21T09:27:22;7.03;;;2.60;;
41755;SDS011;27435;48.480;9.258;2022-08-21T09:29:49;6.68;;;2.58;;
41755;SDS011;27435;48.480;9.258;2022-08-21T09:37:48;4.13;;;2.08;;
41755;SDS011;27435;48.480;9.258;2022-08-21T09:42:54;5.65;;;2.15;;
41755;SDS011;27435;48.480;9.258;2022-08-21T09:45:21;9.85;;;2.40;;
41755;SDS011;27435;48.480;9.258;2022-08-21T09:47:47;10.45;;;2.38;;
41755;SDS011;27435;48.480;9.258;2022-08-21T09:50:15;4.97;;;1.88;;
41755;SDS011;27435;48.480;9.258;2022-08-21T09:52:47;4.90;;;2.20;;
41755;SDS011;27435;48.480;9.258;2022-08-21T09:55:16;7.25;;;2.08;;
41755;SDS011;27435;48.480;9.258;2022-08-21T09:58:16;11.23;;;2.22;;
41755;SDS011;27435;48.480;9.258;2022-08-21T10:00:44;6.50;;;2.08;;
41755;SDS011;27435;48.480;9.258;2022-08-21T10:05:37;6.93;;;2.25;;
41755;SDS011;27435;48.480;9.258;2022-08-21T10:08:04;6.38;;;2.28;;
41755;SDS011;27435;48.480;9.258;2022-08-21T10:10:31;7.05;;;2.70;;
41755;SDS011;27435;48.480;9.258;2022-08-21T10:18:16;6.30;;;2.55;;
41755;SDS011;27435;48.480;9.258;2022-08-21T10:21:03;4.15;;;2.20;;
41755;SDS011;27435;48.480;9.258;2022-08-21T10:48:27;4.60;;;1.90;;
41755;SDS011;27435;48.480;9.258;2022-08-21T10:50:59;12.02;;;2.28;;
41755;SDS011;27435;48.480;9.258;2022-08-21T10:56:17;5.70;;;2.55;;
41755;SDS011;27435;48.480;9.258;2022-08-21T10:58:49;6.45;;;2.00;;
41755;SDS011;27435;48.480;9.258;2022-08-21T11:04:19;5.07;;;2.15;;
41755;SDS011;27435;48.480;9.258;2022-08-21T11:06:53;6.50;;;2.72;;
41755;SDS011;27435;48.480;9.258;2022-08-21T11:09:26;5.63;;;2.25;;
41755;SDS011;27435;48.480;9.258;2022-08-21T11:11:55;3.75;;;2.00;;
41755;SDS011;27435;48.480;9.258;2022-08-21T11:14:33;5.07;;;2.58;;
41755;SDS011;27435;48.480;9.258;2022-08-21T11:17:09;9.10;;;2.25;;
41755;SDS011;27435;48.480;9.258;2022-08-21T11:19:38;7.93;;;2.03;;
41755;SDS011;27435;48.480;9.258;2022-08-21T11:25:20;7.47;;;2.15;;
41755;SDS011;27435;48.480;9.258;2022-08-21T11:27:52;6.28;;;2.13;;
41755;SDS011;27435;48.480;9.258;2022-08-21T11:30:20;6.07;;;2.20;;
41755;SDS011;27435;48.480;9.258;2022-08-21T11:35:39;4.57;;;1.85;;
41755;SDS011;27435;48.480;9.258;2022-08-21T11:43:46;8.15;;;2.30;;
41755;SDS011;27435;48.480;9.258;2022-08-21T11:49:08;4.75;;;1.92;;
41755;SDS011;27435;48.480;9.258;2022-08-21T11:51:50;3.90;;;1.75;;
41755;SDS011;27435;48.480;9.258;2022-08-21T11:54:44;5.93;;;2.55;;
41755;SDS011;27435;48.480;9.258;2022-08-21T11:57:34;6.15;;;2.50;;
41755;SDS011;27435;48.480;9.258;2022-08-21T12:00:06;7.30;;;2.22;;
41755;SDS011;27435;48.480;9.258;2022-08-21T12:02:42;6.35;;;1.92;;
41755;SDS011;27435;48.480;9.258;2022-08-21T12:10:33;5.47;;;2.00;;
41755;SDS011;27435;48.480;9.258;2022-08-21T12:13:05;8.65;;;2.58;;
41755;SDS011;27435;48.480;9.258;2022-08-21T12:15:51;6.25;;;2.28;;
41755;SDS011;27435;48.480;9.258;2022-08-21T12:21:05;8.20;;;2.28;;
41755;SDS011;27435;48.480;9.258;2022-08-21T12:23:44;9.55;;;2.05;;
41755;SDS011;27435;48.480;9.258;2022-08-21T12:28:48;8.07;;;2.17;;
41755;SDS011;27435;48.480;9.258;2022-08-21T12:31:18;4.53;;;1.88;;
41755;SDS011;27435;48.480;9.258;2022-08-21T12:33:50;6.07;;;2.10;;
41755;SDS011;27435;48.480;9.258;2022-08-21T12:36:20;5.85;;;1.77;;
41755;SDS011;27435;48.480;9.258;2022-08-21T12:39:00;5.28;;;1.98;;
41755;SDS011;27435;48.480;9.258;2022-08-21T12:41:32;6.00;;;1.73;;
41755;SDS011;27435;48.480;9.258;2022-08-21T12:44:07;6.00;;;2.03;;
41755;SDS011;27435;48.480;9.258;2022-08-21T12:46:42;5.75;;;2.10;;
41755;SDS011;27435;48.480;9.258;2022-08-21T12:50:05;7.40;;;1.80;;
41755;SDS011;27435;48.480;9.258;2022-08-21T12:52:16;3.88;;;2.13;;
41755;SDS011;27435;48.480;9.258;2022-08-21T12:55:11;6.72;;;1.90;;
41755;SDS011;27435;48.480;9.258;2022-08-21T12:57:40;10.43;;;2.40;;
41755;SDS011;27435;48.480;9.258;2022-08-21T13:00:08;6.25;;;1.88;;
41755;SDS011;27435;48.480;9.258;2022-08-21T13:02:42;4.25;;;1.70;;
41755;SDS011;27435;48.480;9.258;2022-08-21T13:05:13;8.35;;;1.70;;
41755;SDS011;27435;48.480;9.258;2022-08-21T13:07:44;4.35;;;1.60;;
41755;SDS011;27435;48.480;9.258;2022-08-21T13:10:20;7.40;;;2.10;;
41755;SDS011;27435;48.480;9.258;2022-08-21T13:12:49;5.30;;;1.92;;
41755;SDS011;27435;48.480;9.258;2022-08-21T13:15:21;6.43;;;2.45;;
41755;SDS011;27435;48.480;9.258;2022-08-21T13:17:59;4.25;;;1.80;;
41755;SDS011;27435;48.480;9.258;2022-08-21T13:20:34;5.35;;;2.03;;
41755;SDS011;27435;48.480;9.258;2022-08-21T13:23:03;6.25;;;2.10;;
41755;SDS011;27435;48.480;9.258;2022-08-21T13:25:42;5.30;;;2.08;;
41755;SDS011;27435;48.480;9.258;2022-08-21T13:28:09;3.03;;;1.70;;
41755;SDS011;27435;48.480;9.258;2022-08-21T13:30:42;4.95;;;1.75;;
41755;SDS011;27435;48.480;9.258;2022-08-21T13:33:13;4.10;;;1.52;;
41755;SDS011;27435;48.480;9.258;2022-08-21T13:35:52;4.50;;;1.80;;
41755;SDS011;27435;48.480;9.258;2022-08-21T13:38:29;4.32;;;1.83;;
41755;SDS011;27435;48.480;9.258;2022-08-21T13:43:34;8.30;;;2.03;;
41755;SDS011;27435;48.480;9.258;2022-08-21T13:46:02;8.27;;;1.63;;
41755;SDS011;27435;48.480;9.258;2022-08-21T13:48:34;5.45;;;1.80;;
41755;SDS011;27435;48.480;9.258;2022-08-21T13:51:00;5.97;;;1.80;;
41755;SDS011;27435;48.480;9.258;2022-08-21T13:53:28;7.03;;;2.20;;
41755;SDS011;27435;48.480;9.258;2022-08-21T13:56:24;3.88;;;1.52;;
41755;SDS011;27435;48.480;9.258;2022-08-21T13:58:53;9.20;;;2.13;;
41755;SDS011;27435;48.480;9.258;2022-08-21T14:03:52;3.70;;;1.73;;
41755;SDS011;27435;48.480;9.258;2022-08-21T14:06:23;3.45;;;1.40;;
41755;SDS011;27435;48.480;9.258;2022-08-21T14:08:55;6.07;;;1.48;;
41755;SDS011;27435;48.480;9.258;2022-08-21T14:11:27;5.63;;;1.85;;
41755;SDS011;27435;48.480;9.258;2022-08-21T14:13:59;7.75;;;1.83;;
41755;SDS011;27435;48.480;9.258;2022-08-21T14:16:29;5.80;;;1.70;;
41755;SDS011;27435;48.480;9.258;2022-08-21T14:19:17;3.67;;;1.70;;
41755;SDS011;27435;48.480;9.258;2022-08-21T14:21:50;5.57;;;2.25;;
41755;SDS011;27435;48.480;9.258;2022-08-21T14:27:06;4.50;;;1.73;;
41755;SDS011;27435;48.480;9.258;2022-08-21T14:29:37;9.02;;;1.85;;
41755;SDS011;27435;48.480;9.258;2022-08-21T14:32:09;5.57;;;2.05;;
41755;SDS011;27435;48.480;9.258;2022-08-21T14:34:39;3.53;;;1.88;;
41755;SDS011;27435;48.480;9.258;2022-08-21T14:37:05;4.88;;;1.45;;
41755;SDS011;27435;48.480;9.258;2022-08-21T14:39:31;5.32;;;1.55;;
41755;SDS011;27435;48.480;9.258;2022-08-21T14:41:57;5.57;;;2.15;;
41755;SDS011;27435;48.480;9.258;2022-08-21T14:44:23;5.50;;;1.80;;
41755;SDS011;27435;48.480;9.258;2022-08-21T14:46:49;3.95;;;1.70;;
41755;SDS011;27435;48.480;9.258;2022-08-21T14:49:18;5.30;;;1.60;;
41755;SDS011;27435;48.480;9.258;2022-08-21T14:51:44;9.00;;;1.75;;
41755;SDS011;27435;48.480;9.258;2022-08-21T14:54:09;9.32;;;1.85;;
41755;SDS011;27435;48.480;9.258;2022-08-21T14:56:35;6.70;;;1.63;;
41755;SDS011;27435;48.480;9.258;2022-08-21T14:59:02;3.22;;;1.70;;
41755;SDS011;27435;48.480;9.258;2022-08-21T15:01:31;5.20;;;1.30;;
41755;SDS011;27435;48.480;9.258;2022-08-21T15:04:09;4.10;;;1.58;;
41755;SDS011;27435;48.480;9.258;2022-08-21T15:06:35;3.13;;;1.40;;
41755;SDS011;27435;48.480;9.258;2022-08-21T15:09:01;6.00;;;1.77;;
41755;SDS011;27435;48.480;9.258;2022-08-21T15:11:28;3.72;;;1.92;;
41755;SDS011;27435;48.480;9.258;2022-08-21T15:13:55;4.75;;;1.60;;
41755;SDS011;27435;48.480;9.258;2022-08-21T15:16:26;3.75;;;1.75;;
41755;SDS011;27435;48.480;9.258;2022-08-21T15:19:05;4.03;;;1.73;;
41755;SDS011;27435;48.480;9.258;2022-08-21T15:21:31;3.25;;;1.50;;
41755;SDS011;27435;48.480;9.258;2022-08-21T15:23:56;4.38;;;1.73;;
41755;SDS011;27435;48.480;9.258;2022-08-21T15:26:22;3.10;;;1.30;;
41755;SDS011;27435;48.480;9.258;2022-08-21T15:28:50;4.07;;;1.48;;
41755;SDS011;27435;48.480;9.258;2022-08-21T15:31:15;3.72;;;1.55;;
41755;SDS011;27435;48.480;9.258;2022-08-21T15:33:41;5.70;;;1.58;;
41755;SDS011;27435;48.480;9.258;2022-08-21T15:36:07;4.53;;;1.40;;
41755;SDS011;27435;48.480;9.258;2022-08-21T15:38:32;4.95;;;1.63;;
41755;SDS011;27435;48.480;9.258;2022-08-21T15:40:58;4.13;;;1.60;;
41755;SDS011;27435;48.480;9.258;2022-08-21T15:43:25;4.47;;;1.58;;
41755;SDS011;27435;48.480;9.258;2022-08-21T15:45:53;5.75;;;1.60;;
41755;SDS011;27435;48.480;9.258;2022-08-21T15:48:19;5.97;;;1.85;;
41755;SDS011;27435;48.480;9.258;2022-08-21T15:50:45;2.38;;;1.30;;
41755;SDS011;27435;48.480;9.258;2022-08-21T15:53:11;2.50;;;1.30;;
41755;SDS011;27435;48.480;9.258;2022-08-21T15:55:37;4.28;;;1.85;;
41755;SDS011;27435;48.480;9.258;2022-08-21T15:58:04;4.70;;;1.70;;
41755;SDS011;27435;48.480;9.258;2022-08-21T16:00:31;5.38;;;2.35;;
41755;SDS011;27435;48.480;9.258;2022-08-21T16:03:00;4.60;;;1.50;;
41755;SDS011;27435;48.480;9.258;2022-08-21T16:05:29;3.83;;;1.38;;
41755;SDS011;27435;48.480;9.258;2022-08-21T16:07:55;3.17;;;1.60;;
41755;SDS011;27435;48.480;9.258;2022-08-21T16:10:22;3.70;;;1.58;;
41755;SDS011;27435;48.480;9.258;2022-08-21T16:12:50;5.75;;;1.33;;
41755;SDS011;27435;48.480;9.258;2022-08-21T16:15:20;3.60;;;1.40;;
41755;SDS011;27435;48.480;9.258;2022-08-21T16:17:47;3.90;;;1.88;;
41755;SDS011;27435;48.480;9.258;2022-08-21T16:20:18;4.28;;;1.75;;
41755;SDS011;27435;48.480;9.258;2022-08-21T16:22:46;4.22;;;1.77;;
41755;SDS011;27435;48.480;9.258;2022-08-21T16:25:13;2.72;;;1.45;;